»·PEaware :: N62DM KVCV-KPRB

N62DM :: KVCV-KPRB

FLIGHT INFORMATION

Flight Status: Arrived
Operator: Privately registered:
United States
More flights under this callsign
Pilot: Joshua V. (18904)
Aircraft: Diamond DA-62
(DA62)
More flights by this aircraft type
Origin: KVCV Socal Logistics
United States
Destination: KPRB Paso Robles Mun
United States
More flights between these airports :: More routes between these airports
Route: ETHER V12 PMD V137 AVE V248 JEBNO
File this flight plan on PilotEdge
Remarks:
Altitude:
(Current/Filed)
12,000ft
Speed:
(Current/Filed)
180kts
Departed: 22-Sep-20 07:06 PM
Arrived: 22-Sep-20 08:19 PM
Distance/Time
Traveled:
172nm/1:13
Distance/Time
To Go:
Arrived

Flight Plot

Page will automatically refresh every two minutes.

Flight plan parsing failed; only flown route is shown


Map Options




Map Legend


Flown Route
Filed Route
Departure Airport
Arrival Airport
Navaid (VOR, NDB)
Fix

Horizontal Profiles

Position Reports

Time Latitude Longitude Heading Altitude Ground
Speed
22-Sep-20 18:40 34.589229 -117.375122 233 2866ft 0kts
22-Sep-20 18:41 34.589229 -117.375122 233 2866ft 0kts
22-Sep-20 18:42 34.589229 -117.375122 233 2866ft 0kts
22-Sep-20 18:43 34.589229 -117.375122 233 2866ft 0kts
22-Sep-20 18:44 34.589229 -117.375122 233 2866ft 0kts
22-Sep-20 18:45 34.589229 -117.375122 233 2866ft 0kts
22-Sep-20 18:46 34.589229 -117.375122 233 2866ft 0kts
22-Sep-20 18:47 34.589229 -117.375122 233 2866ft 0kts
22-Sep-20 18:48 34.589229 -117.375122 233 2866ft 0kts
22-Sep-20 18:49 34.589229 -117.375122 233 2866ft 0kts
22-Sep-20 18:50 34.589229 -117.375122 233 2866ft 0kts
22-Sep-20 18:51 34.589229 -117.375122 233 2866ft 0kts
22-Sep-20 18:53 34.586367 -117.378689 233 2872ft 0kts
22-Sep-20 18:54 34.588966 -117.374601 233 2866ft 0kts
22-Sep-20 18:55 34.588966 -117.374601 233 2866ft 0kts
22-Sep-20 18:56 34.588966 -117.374601 233 2866ft 0kts
22-Sep-20 18:57 34.588966 -117.374601 233 2866ft 0kts
22-Sep-20 18:58 34.588966 -117.374601 233 2866ft 0kts
22-Sep-20 18:59 34.588966 -117.374601 233 2866ft 0kts
22-Sep-20 19:00 34.588966 -117.374601 233 2866ft 0kts
22-Sep-20 19:01 34.588966 -117.374601 233 2866ft 0kts
22-Sep-20 19:02 34.588867 -117.374779 242 2866ft 8kts
22-Sep-20 19:03 34.592731 -117.373214 46 2861ft 0kts
22-Sep-20 19:04 34.593409 -117.367800 42 2856ft 28kts
22-Sep-20 19:05 34.598671 -117.366734 10 2849ft 14kts
22-Sep-20 19:06 34.595198 -117.372882 226 2861ft 81kts
22-Sep-20 19:07 34.581721 -117.399927 262 3799ft 101kts
22-Sep-20 19:08 34.578543 -117.433459 263 5094ft 102kts
22-Sep-20 19:09 34.575039 -117.469576 263 5906ft 136kts
22-Sep-20 19:10 34.571686 -117.504415 262 7553ft 100kts
22-Sep-20 19:11 34.569009 -117.537871 262 8831ft 102kts
22-Sep-20 19:12 34.574419 -117.570022 292 10043ft 110kts
22-Sep-20 19:12 34.577527 -117.599911 274 11068ft 110kts
22-Sep-20 19:13 34.582105 -117.639074 274 11814ft 149kts
22-Sep-20 19:14 34.588187 -117.691209 275 11985ft 171kts
22-Sep-20 19:15 34.594852 -117.748635 275 11990ft 178kts
22-Sep-20 19:16 34.601739 -117.807934 275 12009ft 177kts
22-Sep-20 19:17 34.608446 -117.865851 275 12008ft 178kts
22-Sep-20 19:18 34.615119 -117.923337 275 12006ft 179kts
22-Sep-20 19:19 34.621063 -117.974595 275 12005ft 179kts
22-Sep-20 19:20 34.626473 -118.028360 272 12011ft 178kts
22-Sep-20 19:21 34.634189 -118.084102 283 12007ft 180kts
22-Sep-20 19:22 34.647290 -118.140564 285 12022ft 179kts
22-Sep-20 19:23 34.661184 -118.197285 282 11935ft 182kts
22-Sep-20 19:24 34.674199 -118.255522 280 11944ft 178kts
22-Sep-20 19:25 34.685884 -118.311742 283 11942ft 179kts
22-Sep-20 19:26 34.698406 -118.367847 283 11950ft 179kts
22-Sep-20 19:27 34.710943 -118.425251 282 11953ft 178kts
22-Sep-20 19:28 34.722992 -118.480969 282 11945ft 178kts
22-Sep-20 19:29 34.734317 -118.538594 283 11925ft 178kts
22-Sep-20 19:30 34.748093 -118.596217 284 11956ft 179kts
22-Sep-20 19:31 34.759460 -118.650467 283 11939ft 179kts
22-Sep-20 19:32 34.772106 -118.708422 283 11941ft 179kts
22-Sep-20 19:33 34.783314 -118.767195 281 11947ft 178kts
22-Sep-20 19:34 34.794898 -118.825955 283 11978ft 179kts
22-Sep-20 19:35 34.814210 -118.878737 316 11887ft 183kts
22-Sep-20 19:36 34.849047 -118.920637 312 11942ft 178kts
22-Sep-20 19:37 34.880356 -118.962049 310 11935ft 179kts
22-Sep-20 19:38 34.914614 -119.006578 310 11889ft 177kts
22-Sep-20 19:39 34.945872 -119.051690 311 12034ft 174kts
22-Sep-20 19:40 34.977769 -119.094328 310 12105ft 179kts
22-Sep-20 19:41 35.012266 -119.139198 313 12037ft 179kts
22-Sep-20 19:42 35.046073 -119.183908 314 12030ft 178kts
22-Sep-20 19:43 35.081229 -119.226552 313 12019ft 180kts
22-Sep-20 19:44 35.116971 -119.269811 313 11982ft 179kts
22-Sep-20 19:45 35.149429 -119.314161 308 12024ft 177kts
22-Sep-20 19:46 35.178401 -119.357534 308 12017ft 177kts
22-Sep-20 19:47 35.210915 -119.402844 311 12033ft 179kts
22-Sep-20 19:48 35.241383 -119.445412 309 12064ft 179kts
22-Sep-20 19:49 35.274809 -119.491188 311 12031ft 178kts
22-Sep-20 19:50 35.310570 -119.534312 315 12014ft 179kts
22-Sep-20 19:51 35.347353 -119.574815 318 12027ft 180kts
22-Sep-20 19:52 35.383911 -119.616437 310 12072ft 180kts
22-Sep-20 19:53 35.416288 -119.663091 306 12079ft 181kts
22-Sep-20 19:54 35.445676 -119.712859 304 12027ft 180kts
22-Sep-20 19:55 35.478003 -119.759527 312 12015ft 180kts
22-Sep-20 19:56 35.513431 -119.803531 311 11971ft 182kts
22-Sep-20 19:57 35.547378 -119.848756 310 12016ft 180kts
22-Sep-20 19:58 35.581226 -119.894854 310 11961ft 182kts
22-Sep-20 19:59 35.616291 -119.939869 315 11940ft 180kts
22-Sep-20 20:00 35.649128 -119.985654 281 11561ft 176kts
22-Sep-20 20:01 35.648992 -120.042056 274 10004ft 159kts
22-Sep-20 20:02 35.652319 -120.095960 272 9092ft 162kts
22-Sep-20 20:03 35.654080 -120.151514 271 8223ft 162kts
22-Sep-20 20:04 35.654075 -120.205502 269 7621ft 155kts
22-Sep-20 20:05 35.655906 -120.258547 272 7014ft 155kts
22-Sep-20 20:06 35.656815 -120.310840 269 6423ft 153kts
22-Sep-20 20:07 35.658779 -120.363031 274 5960ft 154kts
22-Sep-20 20:08 35.628618 -120.377734 191 5739ft 151kts
22-Sep-20 20:09 35.589116 -120.393642 201 5321ft 149kts
22-Sep-20 20:10 35.552463 -120.417114 214 5092ft 150kts
22-Sep-20 20:11 35.520899 -120.451278 224 5055ft 151kts
22-Sep-20 20:12 35.516502 -120.497224 296 4484ft 151kts
22-Sep-20 20:13 35.543144 -120.532825 328 3268ft 136kts
22-Sep-20 20:14 35.572850 -120.554146 328 3117ft 124kts
22-Sep-20 20:15 35.603918 -120.577042 330 2625ft 136kts
22-Sep-20 20:16 35.636823 -120.595335 333 1639ft 106kts
22-Sep-20 20:17 35.660735 -120.611754 322 1022ft 97kts
22-Sep-20 20:18 35.675928 -120.625659 323 821ft 30kts
22-Sep-20 20:19 35.677326 -120.629971 268 810ft 8kts
22-Sep-20 20:20 35.677596 -120.632188 359 811ft 0kts

Navigation Log

Ident Type
Flight plan parsing failed, navigation log unavailable